Time;durP1;ratioP1;P1;durP2;ratioP2;P2;SDS_P1;SDS_P2;PMS_P1;PMS_P2;Temp;Humidity;BMP_temperature;BMP_pressure;BME280_temperature;BME280_humidity;BME280_pressure;Samples;Min_cycle;Max_cycle;Signal;HPM_P1;HPM_P2
2020/12/08 00:02:25;;;;;;;45.17;28.23;;;6.10;97.30;;;;;;8395744;28;20044;-71
2020/12/08 00:06:27;;;;;;;43.17;28.70;;;6.00;97.20;;;;;;8359958;28;20048;-70
2020/12/08 00:10:28;;;;;;;39.70;27.80;;;6.00;97.30;;;;;;8386580;28;20052;-71
2020/12/08 00:14:30;;;;;;;44.17;28.63;;;6.20;99.60;;;;;;8378670;28;20048;-71
2020/12/08 00:18:32;;;;;;;42.57;28.77;;;6.10;99.10;;;;;;8391318;28;20044;-70
2020/12/08 00:22:33;;;;;;;38.75;26.73;;;6.20;98.80;;;;;;8371677;28;20509;-71
2020/12/08 00:26:36;;;;;;;40.47;27.73;;;6.30;98.50;;;;;;8377875;28;20044;-70
2020/12/08 00:30:39;;;;;;;41.10;28.00;;;5.90;97.90;;;;;;8382487;28;20083;-70
2020/12/08 00:34:40;;;;;;;40.83;26.40;;;6.20;97.90;;;;;;8390934;28;20117;-70
2020/12/08 00:38:41;;;;;;;41.83;28.43;;;6.00;97.70;;;;;;8392640;28;20060;-70
2020/12/08 00:42:43;;;;;;;44.97;28.73;;;6.10;97.40;;;;;;8392387;28;20048;-70
2020/12/08 00:46:48;;;;;;;45.97;28.73;;;5.90;97.30;;;;;;8387380;28;20105;-70
2020/12/08 00:50:50;;;;;;;41.83;28.02;;;5.70;97.10;;;;;;8389694;28;20056;-71
2020/12/08 00:54:51;;;;;;;43.37;27.60;;;5.90;97.20;;;;;;8359300;28;20048;-71
2020/12/08 00:58:53;;;;;;;42.30;27.90;;;5.80;97.10;;;;;;8374087;28;20175;-70
2020/12/08 01:02:55;;;;;;;41.75;27.15;;;6.90;97.50;;;;;;8393135;28;20048;-70
2020/12/08 01:06:58;;;;;;;;;;;6.10;97.30;;;;;;8364929;28;20142;-70
2020/12/08 01:11:00;;;;;;;40.45;26.83;;;5.70;97.40;;;;;;8370919;28;19935;-70
2020/12/08 01:15:07;;;;;;;43.58;29.20;;;6.00;97.30;;;;;;8376416;28;20508;-70
2020/12/08 01:19:10;;;;;;;42.70;27.75;;;6.20;97.40;;;;;;8367116;28;20096;-71
2020/12/08 01:23:12;;;;;;;42.17;27.77;;;5.70;97.10;;;;;;8398982;28;20041;-71
2020/12/08 01:27:13;;;;;;;43.72;28.85;;;6.50;97.20;;;;;;8375843;28;20048;-71
2020/12/08 01:31:15;;;;;;;42.83;28.63;;;5.60;97.00;;;;;;8357951;28;20101;-71
2020/12/08 01:35:18;;;;;;;41.42;27.83;;;5.60;97.10;;;;;;8373918;28;20508;-70
2020/12/08 01:39:26;;;;;;;43.78;28.52;;;5.60;97.00;;;;;;8361577;28;20105;-69
2020/12/08 01:43:28;;;;;;;41.37;27.47;;;5.50;97.20;;;;;;8395146;28;20079;-71
2020/12/08 01:47:30;;;;;;;;;;;5.60;97.10;;;;;;8377137;28;21061;-70
2020/12/08 01:51:33;;;;;;;41.53;26.10;;;5.50;96.70;;;;;;8369515;28;20294;-71
2020/12/08 01:55:39;;;;;;;44.20;27.38;;;5.50;97.10;;;;;;8372925;28;20139;-70
2020/12/08 01:59:41;;;;;;;41.33;27.50;;;5.50;97.00;;;;;;8392962;28;20052;-70
2020/12/08 02:03:52;;;;;;;41.42;27.92;;;5.90;97.20;;;;;;8371196;28;20066;-70
2020/12/08 02:07:53;;;;;;;41.95;28.33;;;6.40;97.30;;;;;;8374514;28;20071;-70
2020/12/08 02:11:55;;;;;;;40.60;26.73;;;5.20;97.10;;;;;;8373440;28;20051;-68
2020/12/08 02:15:58;;;;;;;37.15;26.05;;;5.50;97.40;;;;;;8356271;28;20039;-71
2020/12/08 02:20:03;;;;;;;39.13;27.08;;;5.50;97.00;;;;;;8386414;28;20063;-71
2020/12/08 02:24:06;;;;;;;38.25;26.25;;;5.50;97.10;;;;;;8374032;28;20066;-71
2020/12/08 02:28:08;;;;;;;37.28;26.15;;;6.40;97.30;;;;;;8391923;28;20043;-71
2020/12/08 02:32:10;;;;;;;43.00;28.23;;;5.40;97.00;;;;;;8378154;28;20463;-71
2020/12/08 02:36:12;;;;;;;38.60;26.55;;;5.40;97.10;;;;;;8401810;28;20131;-70
2020/12/08 02:40:13;;;;;;;39.35;25.98;;;5.50;97.10;;;;;;8388014;28;20048;-70
2020/12/08 02:44:18;;;;;;;37.53;26.50;;;5.50;97.10;;;;;;8373217;28;20073;-70
2020/12/08 02:48:20;;;;;;;;;;;5.60;97.10;;;;;;8375913;28;20086;-70
2020/12/08 02:52:36;;;;;;;34.70;23.50;;;5.90;97.00;;;;;;8370637;28;19924;-71
2020/12/08 02:56:38;;;;;;;34.87;23.43;;;5.50;97.00;;;;;;8379891;28;20044;-71
2020/12/08 03:00:50;;;;;;;;;;;5.50;97.10;;;;;;8378492;28;20484;-71
2020/12/08 03:04:53;;;;;;;32.95;23.23;;;5.40;97.00;;;;;;8379397;28;20022;-71
2020/12/08 03:08:58;;;;;;;36.45;24.35;;;5.10;97.00;;;;;;8375209;28;20032;-71
2020/12/08 03:13:00;;;;;;;;;;;5.10;97.10;;;;;;8378473;28;20103;-72
2020/12/08 03:17:05;;;;;;;32.13;21.97;;;5.50;97.20;;;;;;8403316;28;19924;-72
2020/12/08 03:21:07;;;;;;;33.58;22.73;;;5.30;97.20;;;;;;8379633;28;20156;-72
2020/12/08 03:25:09;;;;;;;34.30;23.03;;;5.10;97.30;;;;;;8390212;28;20076;-72
2020/12/08 03:29:13;;;;;;;31.90;21.63;;;5.60;97.30;;;;;;8362899;28;20465;-71
2020/12/08 03:33:15;;;;;;;32.45;22.23;;;5.20;97.30;;;;;;8397118;28;21122;-71
2020/12/08 03:37:17;;;;;;;31.35;21.73;;;5.10;97.20;;;;;;8373611;28;20101;-72
2020/12/08 03:41:24;;;;;;;30.02;20.30;;;6.10;97.50;;;;;;8379490;28;20248;-71
2020/12/08 03:45:32;;;;;;;29.23;19.30;;;5.50;97.30;;;;;;8394914;28;20062;-71
2020/12/08 03:49:37;;;;;;;29.88;19.45;;;5.40;97.30;;;;;;8385517;28;20117;-71
2020/12/08 03:53:42;;;;;;;31.38;20.23;;;5.20;97.20;;;;;;8385303;28;20596;-71
2020/12/08 03:57:43;;;;;;;;;;;5.50;97.20;;;;;;8375002;28;20052;-71
2020/12/08 04:01:49;;;;;;;27.15;18.70;;;5.30;97.30;;;;;;8395793;28;19920;-72
2020/12/08 04:05:52;;;;;;;26.25;18.50;;;5.30;97.20;;;;;;8368571;28;20401;-71
2020/12/08 04:09:55;;;;;;;28.65;18.50;;;5.30;97.10;;;;;;8400607;28;20116;-71
2020/12/08 04:13:57;;;;;;;32.42;19.10;;;4.70;97.20;;;;;;8393017;28;20056;-71
2020/12/08 04:17:59;;;;;;;26.17;18.42;;;5.20;97.10;;;;;;8374395;28;20055;-71
2020/12/08 04:22:01;;;;;;;26.42;18.30;;;5.40;97.10;;;;;;8378535;28;20066;-71
2020/12/08 04:26:13;;;;;;;25.98;18.58;;;5.30;97.20;;;;;;8363239;28;20558;-71
2020/12/08 04:30:18;;;;;;;25.17;17.85;;;5.20;97.10;;;;;;8381548;28;20776;-71
2020/12/08 04:34:22;;;;;;;25.33;18.08;;;5.20;97.10;;;;;;8374929;28;20437;-71
2020/12/08 04:38:23;;;;;;;24.83;18.13;;;6.60;97.50;;;;;;8392623;28;20429;-71
2020/12/08 04:42:25;;;;;;;25.43;17.97;;;5.10;97.20;;;;;;8392113;28;20176;-71
2020/12/08 04:46:26;;;;;;;24.23;17.60;;;5.00;97.20;;;;;;8402651;28;20089;-71
2020/12/08 04:50:28;;;;;;;24.77;17.65;;;5.10;97.10;;;;;;8378197;28;20070;-71
2020/12/08 04:54:37;;;;;;;22.35;15.82;;;5.40;97.20;;;;;;8392301;28;20086;-73
2020/12/08 04:58:43;;;;;;;23.27;16.88;;;5.80;97.20;;;;;;8358745;28;20125;-71
2020/12/08 05:02:46;;;;;;;28.15;17.52;;;5.30;97.10;;;;;;8390218;28;20105;-71
2020/12/08 05:07:03;;;;;;;26.08;17.40;;;5.20;97.10;;;;;;8386580;28;20587;-72
2020/12/08 05:11:08;;;;;;;22.88;17.42;;;5.30;97.00;;;;;;8392193;28;20346;-72
2020/12/08 05:15:16;;;;;;;25.80;17.45;;;5.10;97.00;;;;;;8379333;28;20055;-71
2020/12/08 05:19:17;;;;;;;24.25;16.38;;;5.10;97.00;;;;;;8370113;28;20162;-72
2020/12/08 05:23:19;;;;;;;26.03;17.03;;;5.70;97.20;;;;;;8392109;28;20590;-72
2020/12/08 05:27:20;;;;;;;21.77;15.90;;;5.20;97.10;;;;;;8385535;28;20051;-71
2020/12/08 05:31:28;;;;;;;25.30;17.63;;;5.30;97.10;;;;;;8391030;28;20119;-71
2020/12/08 05:35:34;;;;;;;25.95;17.25;;;5.20;97.00;;;;;;8391484;28;20460;-71
2020/12/08 05:39:36;;;;;;;23.77;16.92;;;5.10;96.80;;;;;;8375577;28;20059;-73
2020/12/08 05:43:42;;;;;;;23.48;17.00;;;5.20;97.00;;;;;;8401322;28;20139;-70
2020/12/08 05:47:52;;;;;;;23.10;15.95;;;5.10;97.00;;;;;;8386011;28;20501;-70
2020/12/08 05:51:53;;;;;;;23.73;16.35;;;5.20;96.90;;;;;;8383839;28;20732;-70
2020/12/08 05:56:08;;;;;;;24.17;17.27;;;5.40;97.00;;;;;;8392430;28;20051;-71
2020/12/08 06:00:28;;;;;;;23.77;16.15;;;5.20;97.00;;;;;;8392217;28;20048;-71
2020/12/08 06:04:42;;;;;;;21.52;15.63;;;5.20;96.90;;;;;;8384489;28;20611;-71
2020/12/08 06:08:48;;;;;;;21.73;15.23;;;5.50;97.00;;;;;;8366304;28;20060;-71
2020/12/08 06:12:57;;;;;;;21.25;15.77;;;5.20;97.00;;;;;;8386016;28;20056;-71
2020/12/08 06:17:04;;;;;;;22.02;15.32;;;5.10;96.90;;;;;;8372421;28;20097;-71
2020/12/08 06:21:26;;;;;;;24.52;16.83;;;5.20;96.80;;;;;;8375341;28;20060;-72
2020/12/08 06:25:28;;;;;;;20.20;13.52;;;5.20;96.70;;;;;;8376016;28;20057;-71
2020/12/08 06:29:30;;;;;;;20.88;15.30;;;5.10;96.80;;;;;;8399975;28;20071;-71
2020/12/08 06:33:44;;;;;;;22.23;15.80;;;5.10;96.90;;;;;;8398167;28;20048;-71
2020/12/08 06:37:53;;;;;;;20.67;14.07;;;5.20;96.80;;;;;;8389223;28;20040;-71
2020/12/08 06:41:55;;;;;;;21.23;15.75;;;5.20;96.90;;;;;;8398456;28;20079;-71
2020/12/08 06:46:10;;;;;;;19.97;14.63;;;5.20;96.80;;;;;;8388091;28;20058;-71
2020/12/08 06:50:22;;;;;;;22.00;13.57;;;5.20;96.80;;;;;;8400199;28;20047;-70
2020/12/08 06:54:24;;;;;;;23.13;14.77;;;5.20;96.70;;;;;;8398415;28;20036;-70
2020/12/08 06:58:26;;;;;;;21.45;14.35;;;5.70;96.80;;;;;;8375318;28;20056;-71
2020/12/08 07:02:28;;;;;;;18.27;13.77;;;5.90;96.90;;;;;;8379349;28;20044;-70
2020/12/08 07:06:33;;;;;;;19.13;13.73;;;6.00;97.00;;;;;;8401790;28;20071;-71
2020/12/08 07:10:42;;;;;;;18.38;13.43;;;5.80;96.80;;;;;;8360264;28;20067;-70
2020/12/08 07:14:44;;;;;;;18.35;13.02;;;5.10;96.70;;;;;;8396354;28;20513;-70
2020/12/08 07:18:45;;;;;;;17.90;13.37;;;5.30;96.70;;;;;;8376492;28;20543;-70
2020/12/08 07:22:47;;;;;;;17.20;13.00;;;5.50;96.70;;;;;;8393586;28;20044;-71
2020/12/08 07:26:48;;;;;;;17.38;12.70;;;5.50;96.80;;;;;;8402341;28;20051;-70
2020/12/08 07:30:50;;;;;;;16.93;12.87;;;5.50;96.50;;;;;;8393900;28;20861;-70
2020/12/08 07:34:52;;;;;;;17.92;12.68;;;5.70;96.40;;;;;;8397180;28;20052;-70
2020/12/08 07:38:54;;;;;;;17.27;12.27;;;5.60;96.40;;;;;;8393204;28;20040;-70
2020/12/08 07:42:56;;;;;;;17.98;12.90;;;5.70;96.30;;;;;;8398301;28;20484;-70
2020/12/08 07:46:57;;;;;;;15.13;11.37;;;5.50;96.40;;;;;;8386753;28;20047;-70
2020/12/08 07:50:59;;;;;;;17.03;11.87;;;5.50;96.50;;;;;;8366291;28;20056;-70
2020/12/08 07:55:00;;;;;;;18.23;12.73;;;5.40;96.40;;;;;;8393049;28;20113;-70
2020/12/08 07:59:03;;;;;;;16.43;11.47;;;5.70;96.50;;;;;;8403067;28;20477;-70
2020/12/08 08:03:05;;;;;;;15.98;12.13;;;5.60;96.40;;;;;;8398557;28;20063;-70
2020/12/08 08:07:07;;;;;;;16.48;11.48;;;5.60;96.30;;;;;;8378649;28;20105;-70
2020/12/08 08:11:08;;;;;;;15.93;10.73;;;5.70;96.30;;;;;;8376068;28;20510;-69
2020/12/08 08:15:10;;;;;;;15.73;12.20;;;5.90;97.30;;;;;;8395117;28;20048;-68
2020/12/08 08:19:11;;;;;;;15.07;11.97;;;6.30;97.40;;;;;;8366356;28;20402;-69
2020/12/08 08:23:15;;;;;;;15.20;11.50;;;5.90;97.10;;;;;;8389776;28;20469;-69
2020/12/08 08:27:16;;;;;;;16.23;10.82;;;6.60;99.90;;;;;;8394182;28;20480;-69
2020/12/08 08:31:20;;;;;;;14.60;10.90;;;5.90;99.90;;;;;;8361618;28;20052;-69
2020/12/08 08:35:22;;;;;;;17.20;12.77;;;5.60;99.90;;;;;;8399072;28;20040;-68
2020/12/08 08:39:23;;;;;;;15.77;11.47;;;5.90;99.70;;;;;;8373661;28;20447;-68
2020/12/08 08:43:26;;;;;;;16.48;11.82;;;5.60;99.50;;;;;;8392778;28;20156;-68
2020/12/08 08:47:29;;;;;;;20.05;14.32;;;5.90;99.30;;;;;;8373252;28;20469;-68
2020/12/08 08:51:30;;;;;;;15.65;12.02;;;5.90;99.00;;;;;;8391084;28;20070;-68
2020/12/08 08:55:31;;;;;;;16.10;12.43;;;5.90;98.70;;;;;;8402445;28;20570;-68
2020/12/08 08:59:46;;;;;;;16.50;12.30;;;5.70;98.70;;;;;;8393220;28;20071;-68
2020/12/08 09:03:51;;;;;;;14.65;11.50;;;5.90;98.70;;;;;;8389796;28;20044;-68
2020/12/08 09:07:53;;;;;;;17.70;12.95;;;6.10;98.50;;;;;;8383521;28;20141;-69
2020/12/08 09:11:55;;;;;;;14.38;11.60;;;6.00;98.60;;;;;;8392749;28;20090;-69
2020/12/08 09:15:57;;;;;;;17.10;11.55;;;5.20;98.80;;;;;;8391069;28;20051;-68
2020/12/08 09:19:58;;;;;;;15.73;11.90;;;6.10;98.60;;;;;;8387799;28;20044;-69
2020/12/08 09:24:01;;;;;;;17.02;12.20;;;6.10;98.70;;;;;;8389688;28;20047;-69
2020/12/08 09:28:03;;;;;;;17.60;12.13;;;5.80;98.30;;;;;;8369040;28;20072;-68
2020/12/08 09:32:04;;;;;;;15.37;11.70;;;6.10;98.40;;;;;;8399787;28;20431;-69
2020/12/08 09:36:06;;;;;;;16.93;12.83;;;5.80;98.30;;;;;;8372792;28;20052;-69
2020/12/08 09:40:07;;;;;;;15.23;11.77;;;5.80;98.40;;;;;;8384597;28;21101;-69
2020/12/08 09:44:10;;;;;;;15.90;11.60;;;6.00;98.40;;;;;;8387726;28;20047;-69
2020/12/08 09:48:12;;;;;;;17.88;11.68;;;6.20;98.40;;;;;;8400068;28;20051;-69
2020/12/08 09:52:14;;;;;;;16.77;11.83;;;5.90;98.50;;;;;;8371851;28;20052;-69
2020/12/08 09:56:15;;;;;;;15.20;11.70;;;6.30;98.40;;;;;;8368669;28;20090;-69
2020/12/08 10:00:17;;;;;;;13.63;10.57;;;6.10;98.20;;;;;;8388944;28;20040;-69
2020/12/08 10:04:18;;;;;;;14.63;10.60;;;6.10;98.40;;;;;;8366650;28;20048;-69
2020/12/08 10:08:20;;;;;;;14.00;10.13;;;6.10;98.20;;;;;;8376922;28;20425;-69
2020/12/08 10:12:23;;;;;;;15.90;11.13;;;6.60;98.30;;;;;;8388749;28;20031;-69
2020/12/08 10:16:25;;;;;;;37.07;21.13;;;6.40;98.00;;;;;;8380863;28;20459;-68
2020/12/08 10:20:27;;;;;;;18.85;12.65;;;6.60;98.10;;;;;;8388861;28;20182;-69
2020/12/08 10:24:31;;;;;;;18.80;13.25;;;6.30;98.00;;;;;;8383274;28;20052;-68
2020/12/08 10:28:33;;;;;;;16.35;11.63;;;6.50;98.10;;;;;;8331819;28;51367;-68
2020/12/08 10:32:35;;;;;;;28.47;19.73;;;6.70;98.00;;;;;;8323821;28;20108;-68
2020/12/08 10:36:40;;;;;;;21.63;15.77;;;6.20;98.10;;;;;;8317470;28;20103;-69
2020/12/08 10:40:41;;;;;;;14.10;11.03;;;6.80;98.00;;;;;;8309497;28;20835;-68
2020/12/08 10:44:43;;;;;;;15.43;10.43;;;6.60;97.60;;;;;;8318378;28;20091;-69
2020/12/08 10:48:44;;;;;;;18.63;14.15;;;6.40;97.70;;;;;;8335124;28;20049;-68
2020/12/08 10:52:45;;;;;;;13.87;10.93;;;6.80;97.60;;;;;;8315667;28;20049;-69
2020/12/08 10:57:06;;;;;;;17.40;11.90;;;6.50;97.70;;;;;;8307166;28;20042;-69
2020/12/08 11:01:07;;;;;;;13.93;10.93;;;6.70;97.50;;;;;;8304333;28;20589;-69
2020/12/08 11:05:11;;;;;;;14.83;11.80;;;6.40;97.20;;;;;;8355070;28;20102;-69
2020/12/08 11:09:13;;;;;;;16.27;12.02;;;6.70;97.00;;;;;;8357390;28;20036;-69
2020/12/08 11:13:15;;;;;;;12.90;10.23;;;6.70;97.10;;;;;;8340028;28;20048;-70
2020/12/08 11:17:35;;;;;;;14.05;9.55;;;6.70;97.30;;;;;;8338636;28;20064;-69
2020/12/08 11:21:39;;;;;;;12.82;10.02;;;6.80;97.40;;;;;;8353310;28;20048;-69
2020/12/08 11:25:58;;;;;;;13.57;10.85;;;6.60;97.40;;;;;;8361386;28;20052;-68
2020/12/08 11:30:00;;;;;;;15.17;11.13;;;6.60;96.90;;;;;;8358117;28;20122;-68
2020/12/08 11:34:01;;;;;;;15.55;10.70;;;6.80;97.30;;;;;;8355757;28;20662;-69
2020/12/08 11:38:03;;;;;;;14.57;10.77;;;6.80;97.40;;;;;;8343700;28;20380;-69
2020/12/08 11:42:06;;;;;;;14.45;10.75;;;6.50;97.60;;;;;;8351503;28;20064;-69
2020/12/08 11:46:11;;;;;;;13.00;9.70;;;6.80;97.00;;;;;;8355678;28;20076;-69
2020/12/08 11:50:12;;;;;;;15.48;10.70;;;6.70;97.10;;;;;;8362180;28;20040;-68
2020/12/08 11:54:19;;;;;;;14.35;10.70;;;6.70;97.10;;;;;;8357561;28;21264;-69
2020/12/08 11:58:21;;;;;;;12.63;9.55;;;6.60;96.70;;;;;;8366016;28;20131;-69
2020/12/08 12:02:22;;;;;;;16.63;10.30;;;7.00;97.30;;;;;;8326671;28;20444;-69
2020/12/08 12:06:24;;;;;;;14.33;10.03;;;6.80;97.50;;;;;;8345524;28;20107;-69
2020/12/08 12:10:29;;;;;;;15.55;10.65;;;6.60;97.40;;;;;;8343283;28;20124;-69
2020/12/08 12:14:30;;;;;;;24.23;15.85;;;7.00;97.70;;;;;;8345496;28;20047;-69
2020/12/08 12:18:32;;;;;;;19.83;13.60;;;7.00;97.90;;;;;;8347803;28;20055;-69
2020/12/08 12:22:36;;;;;;;18.67;11.75;;;6.90;97.90;;;;;;8339093;28;20403;-68
2020/12/08 12:26:37;;;;;;;14.10;10.40;;;7.10;97.80;;;;;;8347318;28;20040;-69
2020/12/08 12:30:39;;;;;;;;;;;6.90;97.80;;;;;;8359115;28;20074;-69
2020/12/08 12:34:41;;;;;;;21.75;13.10;;;6.90;98.10;;;;;;8348921;28;19936;-69
2020/12/08 12:38:48;;;;;;;17.58;11.82;;;6.90;97.60;;;;;;8343085;28;20067;-70
2020/12/08 12:42:50;;;;;;;18.95;13.77;;;7.10;97.20;;;;;;8363369;28;20068;-69
2020/12/08 12:46:52;;;;;;;18.73;12.70;;;6.80;97.70;;;;;;8360476;28;20040;-69
2020/12/08 12:50:54;;;;;;;18.58;15.00;;;7.60;97.90;;;;;;8326521;28;20040;-68
2020/12/08 12:54:55;;;;;;;15.37;11.13;;;6.80;97.00;;;;;;8368510;28;20052;-69
2020/12/08 12:58:57;;;;;;;17.00;11.85;;;6.80;97.80;;;;;;8345095;28;20052;-69
2020/12/08 13:02:58;;;;;;;15.17;12.13;;;7.10;97.80;;;;;;8341344;28;20074;-68
2020/12/08 13:07:02;;;;;;;21.67;14.03;;;7.00;98.00;;;;;;8339717;28;20122;-68
2020/12/08 13:11:08;;;;;;;19.92;14.45;;;6.90;98.00;;;;;;8373519;28;20049;-69
2020/12/08 13:15:10;;;;;;;22.15;14.95;;;7.20;97.80;;;;;;8342899;28;20049;-68
2020/12/08 13:19:12;;;;;;;18.87;12.13;;;7.10;98.20;;;;;;8359665;28;20057;-68
2020/12/08 13:23:14;;;;;;;17.02;13.30;;;7.10;98.30;;;;;;8364277;28;20057;-68
2020/12/08 13:27:17;;;;;;;20.55;15.32;;;6.80;98.10;;;;;;8354976;28;20048;-68
2020/12/08 13:31:19;;;;;;;17.10;11.77;;;6.80;98.00;;;;;;8362627;28;20075;-68
2020/12/08 13:35:28;;;;;;;15.23;11.15;;;7.10;98.40;;;;;;8356501;28;20747;-68
2020/12/08 13:39:29;;;;;;;17.17;12.00;;;7.00;98.40;;;;;;8357494;28;20051;-69
2020/12/08 13:43:31;;;;;;;14.53;10.30;;;6.80;98.20;;;;;;8336266;28;20128;-68
2020/12/08 13:47:32;;;;;;;13.97;9.90;;;6.80;98.30;;;;;;8351246;28;20109;-68
2020/12/08 13:51:34;;;;;;;16.53;10.20;;;6.80;98.30;;;;;;8344742;28;20049;-67
2020/12/08 13:55:35;;;;;;;16.60;11.00;;;6.80;97.90;;;;;;8336214;28;20122;-69
2020/12/08 13:59:36;;;;;;;14.07;10.43;;;6.90;98.20;;;;;;8359221;28;20056;-68
2020/12/08 14:03:38;;;;;;;13.88;10.23;;;6.50;97.60;;;;;;8351989;28;20048;-69
2020/12/08 14:07:40;;;;;;;16.53;11.57;;;6.70;97.80;;;;;;8351792;28;20036;-68
2020/12/08 14:11:42;;;;;;;16.53;11.57;;;6.70;98.00;;;;;;8363651;28;20048;-68
2020/12/08 14:15:44;;;;;;;15.70;11.50;;;6.90;98.00;;;;;;8359966;28;20048;-68
2020/12/08 14:19:47;;;;;;;19.10;12.77;;;6.60;98.20;;;;;;8359208;28;20106;-68
2020/12/08 14:23:51;;;;;;;17.05;11.93;;;6.90;98.60;;;;;;8356060;28;20048;-69
2020/12/08 14:27:53;;;;;;;19.70;13.27;;;6.90;98.30;;;;;;8361787;28;20045;-69
2020/12/08 14:31:55;;;;;;;15.95;12.02;;;6.60;98.30;;;;;;8364329;28;20056;-69
2020/12/08 14:35:56;;;;;;;18.50;13.65;;;6.70;98.30;;;;;;8363849;28;20075;-68
2020/12/08 14:39:57;;;;;;;21.97;14.30;;;6.90;98.50;;;;;;8347585;28;20037;-68
2020/12/08 14:43:59;;;;;;;20.17;14.17;;;7.20;99.30;;;;;;8374342;28;20075;-68
2020/12/08 14:48:01;;;;;;;26.67;17.90;;;6.90;98.60;;;;;;8345521;28;20438;-68
2020/12/08 14:52:03;;;;;;;38.67;22.60;;;6.90;98.60;;;;;;8362055;28;20387;-68
2020/12/08 14:56:04;;;;;;;22.90;15.48;;;6.90;98.70;;;;;;8367105;28;20174;-69
2020/12/08 15:00:08;;;;;;;68.93;36.08;;;6.70;98.60;;;;;;8378263;28;20483;-69
2020/12/08 15:04:09;;;;;;;18.38;12.88;;;6.80;99.00;;;;;;8368675;28;20041;-68
2020/12/08 15:08:10;;;;;;;49.30;26.47;;;6.60;99.00;;;;;;8354285;28;20044;-68
2020/12/08 15:12:12;;;;;;;46.67;25.90;;;6.80;99.10;;;;;;8367105;28;20469;-67
2020/12/08 15:16:13;;;;;;;29.87;19.60;;;6.70;99.00;;;;;;8374834;28;20044;-68
2020/12/08 15:20:15;;;;;;;24.47;14.80;;;6.80;99.20;;;;;;8353388;28;20058;-68
2020/12/08 15:24:16;;;;;;;37.23;24.13;;;6.50;99.10;;;;;;8347813;28;20052;-68
2020/12/08 15:28:18;;;;;;;39.17;22.47;;;6.50;99.00;;;;;;8365583;28;20056;-68
2020/12/08 15:32:21;;;;;;;38.90;24.45;;;6.70;99.30;;;;;;8367122;28;26236;-68
2020/12/08 15:36:23;;;;;;;38.28;23.13;;;6.60;99.30;;;;;;8361082;28;20455;-68
2020/12/08 15:40:25;;;;;;;33.27;21.77;;;6.70;99.40;;;;;;8361716;28;20737;-68
2020/12/08 15:44:26;;;;;;;38.08;22.92;;;6.80;99.50;;;;;;8366009;28;20493;-68
2020/12/08 15:48:27;;;;;;;41.23;23.97;;;6.50;99.60;;;;;;8345936;28;20502;-68
2020/12/08 15:52:29;;;;;;;41.97;25.03;;;6.50;99.70;;;;;;8359662;28;20118;-69
2020/12/08 15:56:36;;;;;;;38.93;23.87;;;6.80;99.70;;;;;;8347932;28;20086;-68
2020/12/08 16:00:37;;;;;;;41.33;25.05;;;6.40;99.80;;;;;;8347199;28;20092;-69
2020/12/08 16:04:40;;;;;;;28.85;15.40;;;6.40;99.90;;;;;;8350292;28;20190;-69
2020/12/08 16:08:41;;;;;;;42.73;25.03;;;6.90;99.90;;;;;;8348551;28;20436;-68
2020/12/08 16:12:43;;;;;;;40.23;25.13;;;6.60;99.60;;;;;;8356997;28;20048;-69
2020/12/08 16:16:44;;;;;;;46.00;27.60;;;6.50;99.60;;;;;;8361087;28;20061;-68
2020/12/08 16:20:46;;;;;;;44.40;26.63;;;6.40;99.60;;;;;;8355429;28;20470;-69
2020/12/08 16:24:48;;;;;;;44.25;25.73;;;6.40;99.60;;;;;;8367123;28;20040;-68
2020/12/08 16:28:52;;;;;;;49.35;28.58;;;6.40;99.60;;;;;;8376037;28;20041;-68
2020/12/08 16:33:03;;;;;;;48.38;27.40;;;7.00;99.70;;;;;;8349574;28;20046;-68
2020/12/08 16:37:04;;;;;;;44.67;27.35;;;6.50;99.60;;;;;;8346997;28;20040;-69
2020/12/08 16:41:06;;;;;;;56.60;31.10;;;6.30;99.70;;;;;;8362791;28;20391;-68
2020/12/08 16:45:07;;;;;;;46.33;26.67;;;6.50;99.70;;;;;;8323715;28;20874;-68
2020/12/08 16:49:09;;;;;;;45.88;25.55;;;6.50;99.90;;;;;;8361784;28;20070;-69
2020/12/08 16:53:11;;;;;;;46.47;28.63;;;6.60;99.90;;;;;;8342915;28;20045;-69
2020/12/08 16:57:12;;;;;;;52.87;29.57;;;6.50;99.90;;;;;;8357753;28;20045;-69
2020/12/08 17:01:14;;;;;;;50.40;30.40;;;6.50;99.80;;;;;;8359837;28;20796;-69
2020/12/08 17:05:16;;;;;;;;;;;6.40;99.50;;;;;;8369977;28;20159;-69
2020/12/08 17:09:20;;;;;;;50.63;30.53;;;6.50;99.90;;;;;;8361538;28;19924;-69
2020/12/08 17:13:21;;;;;;;55.67;31.48;;;6.70;99.90;;;;;;8352485;28;20044;-69
2020/12/08 17:17:23;;;;;;;61.07;34.23;;;6.50;99.90;;;;;;8355908;28;20045;-69
2020/12/08 17:21:24;;;;;;;54.20;30.63;;;6.50;99.80;;;;;;8335659;28;20374;-69
2020/12/08 17:25:26;;;;;;;59.33;37.30;;;6.40;99.90;;;;;;8350878;28;20048;-69
2020/12/08 17:29:27;;;;;;;62.80;34.77;;;6.50;99.90;;;;;;8361971;28;20145;-68
2020/12/08 17:33:29;;;;;;;56.03;29.48;;;6.50;99.70;;;;;;8353646;28;20474;-69
2020/12/08 17:37:30;;;;;;;57.27;32.93;;;6.70;99.90;;;;;;8344280;28;20476;-68
2020/12/08 17:41:32;;;;;;;52.43;29.17;;;6.70;99.90;;;;;;8336871;28;20523;-69
2020/12/08 17:45:34;;;;;;;58.63;30.88;;;6.50;99.90;;;;;;8328859;28;20060;-69
2020/12/08 17:49:36;;;;;;;53.78;30.33;;;6.40;99.80;;;;;;8345876;28;21319;-69
2020/12/08 17:53:37;;;;;;;58.17;32.28;;;6.60;99.90;;;;;;8342445;28;20583;-68
2020/12/08 17:57:42;;;;;;;42.53;21.92;;;6.50;99.80;;;;;;8356767;28;20045;-69
2020/12/08 18:01:43;;;;;;;45.95;25.25;;;6.40;99.90;;;;;;8353860;28;20059;-69
2020/12/08 18:05:45;;;;;;;49.07;28.77;;;7.40;99.90;;;;;;8354527;28;20055;-69
2020/12/08 18:09:46;;;;;;;50.83;28.10;;;6.40;99.90;;;;;;8353117;28;20473;-69
2020/12/08 18:13:48;;;;;;;49.00;27.08;;;6.40;99.80;;;;;;8359071;28;20678;-68
2020/12/08 18:17:53;;;;;;;49.83;26.40;;;6.50;99.90;;;;;;8352155;28;20079;-69
2020/12/08 18:21:56;;;;;;;53.63;28.83;;;6.50;99.80;;;;;;8342195;28;20067;-68
2020/12/08 18:25:58;;;;;;;56.13;30.20;;;6.40;99.90;;;;;;8361320;28;20533;-69
2020/12/08 18:30:00;;;;;;;53.63;28.25;;;6.40;99.90;;;;;;8345433;28;20052;-69
2020/12/08 18:34:13;;;;;;;55.22;31.30;;;6.40;99.90;;;;;;8348243;28;20468;-69
2020/12/08 18:38:15;;;;;;;56.53;31.53;;;6.60;99.90;;;;;;8357090;28;20048;-69
2020/12/08 18:42:17;;;;;;;58.20;30.25;;;7.30;99.90;;;;;;8348259;28;20102;-69
2020/12/08 18:46:18;;;;;;;54.72;30.20;;;6.40;99.80;;;;;;8341914;28;20052;-69
2020/12/08 18:50:20;;;;;;;61.03;32.93;;;6.50;99.90;;;;;;8367005;28;20059;-70
2020/12/08 18:54:22;;;;;;;55.83;28.65;;;6.30;99.90;;;;;;8359028;28;20106;-69
2020/12/08 18:58:24;;;;;;;59.17;31.70;;;6.20;99.90;;;;;;8349500;28;20052;-69
2020/12/08 19:02:25;;;;;;;;;;;6.30;99.90;;;;;;8362990;28;20045;-68
2020/12/08 19:06:28;;;;;;;;;;;6.20;99.90;;;;;;8327349;28;19933;-69
2020/12/08 19:10:29;;;;;;;55.92;29.83;;;6.30;99.90;;;;;;8344243;28;19920;-69
2020/12/08 19:14:31;;;;;;;54.28;31.13;;;6.40;99.90;;;;;;8368219;28;20052;-69
2020/12/08 19:18:36;;;;;;;63.30;35.50;;;6.50;99.90;;;;;;8342102;28;20052;-69
2020/12/08 19:22:40;;;;;;;52.60;32.08;;;5.90;99.90;;;;;;8347954;28;20045;-68
2020/12/08 19:26:43;;;;;;;59.42;33.90;;;6.30;99.90;;;;;;8340363;28;20701;-70
2020/12/08 19:30:44;;;;;;;50.30;28.98;;;5.90;96.60;;;;;;8354884;28;20044;-70
2020/12/08 19:34:46;;;;;;;55.43;31.13;;;6.10;96.50;;;;;;8343864;28;20060;-69
2020/12/08 19:38:49;;;;;;;46.08;28.13;;;6.00;96.40;;;;;;8358177;28;20090;-71
2020/12/08 19:42:53;;;;;;;53.87;32.07;;;5.90;96.90;;;;;;8324853;28;20048;-71
2020/12/08 19:46:54;;;;;;;39.13;23.35;;;5.80;96.70;;;;;;8368177;28;20464;-70
2020/12/08 19:50:56;;;;;;;54.13;31.73;;;5.90;96.80;;;;;;8366149;28;20181;-71
2020/12/08 19:54:58;;;;;;;49.77;25.93;;;5.80;96.60;;;;;;8326758;28;20055;-70
2020/12/08 19:58:59;;;;;;;54.10;29.97;;;5.90;96.80;;;;;;8364155;28;20055;-70
2020/12/08 20:03:01;;;;;;;57.10;34.38;;;5.80;96.80;;;;;;8354409;28;20526;-69
2020/12/08 20:07:02;;;;;;;60.77;32.57;;;5.90;96.70;;;;;;8367010;28;20063;-69
2020/12/08 20:11:03;;;;;;;56.83;30.07;;;5.90;96.70;;;;;;8346983;28;20090;-69
2020/12/08 20:15:08;;;;;;;56.23;30.70;;;5.90;96.80;;;;;;8338250;28;20070;-70
2020/12/08 20:19:10;;;;;;;52.78;29.73;;;5.90;96.90;;;;;;8361646;28;20052;-70
2020/12/08 20:23:11;;;;;;;54.22;30.10;;;5.90;96.80;;;;;;8341152;28;20502;-69
2020/12/08 20:27:13;;;;;;;56.28;31.80;;;5.80;97.00;;;;;;8364170;28;20437;-70
2020/12/08 20:31:15;;;;;;;49.45;27.30;;;5.80;96.90;;;;;;8360625;28;20060;-69
2020/12/08 20:35:19;;;;;;;51.93;30.43;;;5.80;97.30;;;;;;8348224;28;20662;-70
2020/12/08 20:39:21;;;;;;;53.45;29.52;;;5.90;97.00;;;;;;8318667;28;20469;-69
2020/12/08 20:43:23;;;;;;;71.17;38.93;;;5.80;97.00;;;;;;8352440;28;20470;-69
2020/12/08 20:47:25;;;;;;;60.80;33.87;;;5.80;96.90;;;;;;8345668;28;21042;-70
2020/12/08 20:51:27;;;;;;;64.32;32.85;;;5.80;96.90;;;;;;8346219;28;20090;-70
2020/12/08 20:55:29;;;;;;;66.00;34.93;;;5.90;96.90;;;;;;8356210;28;20078;-70